National Geographic Sea Bird — WAK8004 — position and weather

sailwx.info

Track history (hours):
 
Tides and Currents Weather Stations Pressure Air Temp Water Temp Dewpoint Dewpoint Depression Visibility Wind Speed Wind Dir Waves Ship Positions

National Geographic Sea Bird

Owner: Lindblad Expeditions LLC, SEATTLE, WA. More information available from US FCC via Universal Licensing System and Coast Guard Vessel Documentation Center.

Last reported at 2018-Dec-11 09:02 UTC. Time now 2018-Dec-12 14:41 UTC.
Position N 32°17' W 117°08'.

Length 50 m; draft 2.7 m.

Type: Passenger vessel. MMSI: 366892350.

Date/timePositionNaut miles runAvg speedWind from/ knotsBaromVisibWave heightAir tempDewpointWater temp
2018-Dec-11 09:02N 32°17' W 117°08'0 6.6
2018-Dec-11 08:59N 32°17' W 117°09'3 6.3
2018-Dec-11 08:30N 32°20' W 117°10'3 6.3
2018-Dec-11 08:00N 32°23' W 117°11'3 6.3
2018-Dec-11 07:30N 32°26' W 117°12'3 6.3
2018-Dec-11 06:59N 32°29' W 117°12'3 6.4
2018-Dec-11 06:30N 32°32' W 117°13'3 6.5
2018-Dec-11 06:01N 32°35' W 117°13'4 7.3
2018-Dec-11 05:30N 32°39' W 117°14'3 6.8
2018-Dec-11 05:01N 32°42' W 117°14'3 5.9
2018-Dec-11 04:31N 32°42' W 117°10'1 0.1
2018-Dec-10 17:48N 32°42' W 117°09'1 2.0
2018-Dec-10 17:30N 32°42' W 117°10'1 0.3
2018-Dec-10 15:22N 32°42' W 117°09'0 0.1
2018-Dec-10 14:50N 32°42' W 117°09'2 6.1
2018-Dec-10 14:30N 32°43' W 117°11'3 5.6
2018-Dec-10 14:00N 32°41' W 117°14'3 6.9
2018-Dec-10 13:30N 32°38' W 117°13'3 6.4
2018-Dec-10 13:00N 32°35' W 117°13'3 6.8
2018-Dec-10 12:30N 32°31' W 117°12'7 6.6
2018-Dec-10 11:30N 32°25' W 117°11'3 6.7
2018-Dec-10 11:00N 32°21' W 117°10'4 6.5
2018-Dec-10 10:24N 32°18' W 117°09'3 6.5
2018-Dec-10 09:59N 32°15' W 117°08'2 5.1
2018-Dec-10 09:30N 32°13' W 117°06'  
Track history (hours):
 
Tides and Currents Weather Stations Pressure Air Temp Water Temp Dewpoint Dewpoint Depression Visibility Wind Speed Wind Dir Waves Ship Positions

National Geographic Sea Bird

Owner: Lindblad Expeditions LLC, SEATTLE, WA. More information available from US FCC via Universal Licensing System and Coast Guard Vessel Documentation Center.

Last reported at 2018-Dec-11 09:02 UTC. Time now 2018-Dec-12 14:41 UTC.
Position N 32°17' W 117°08'.

Length 50 m; draft 2.7 m.

Type: Passenger vessel. MMSI: 366892350.

Date/timePositionNaut miles runAvg speedWind from/ knotsBaromVisibWave heightAir tempDewpointWater temp
2018-Dec-11 09:02N 32°17' W 117°08'0 6.6
2018-Dec-11 08:59N 32°17' W 117°09'3 6.3
2018-Dec-11 08:30N 32°20' W 117°10'3 6.3
2018-Dec-11 08:00N 32°23' W 117°11'3 6.3
2018-Dec-11 07:30N 32°26' W 117°12'3 6.3
2018-Dec-11 06:59N 32°29' W 117°12'3 6.4
2018-Dec-11 06:30N 32°32' W 117°13'3 6.5
2018-Dec-11 06:01N 32°35' W 117°13'4 7.3
2018-Dec-11 05:30N 32°39' W 117°14'3 6.8
2018-Dec-11 05:01N 32°42' W 117°14'3 5.9
2018-Dec-11 04:31N 32°42' W 117°10'1 0.1
2018-Dec-10 17:48N 32°42' W 117°09'1 2.0
2018-Dec-10 17:30N 32°42' W 117°10'1 0.3
2018-Dec-10 15:22N 32°42' W 117°09'0 0.1
2018-Dec-10 14:50N 32°42' W 117°09'2 6.1
2018-Dec-10 14:30N 32°43' W 117°11'3 5.6
2018-Dec-10 14:00N 32°41' W 117°14'3 6.9
2018-Dec-10 13:30N 32°38' W 117°13'3 6.4
2018-Dec-10 13:00N 32°35' W 117°13'3 6.8
2018-Dec-10 12:30N 32°31' W 117°12'7 6.6
2018-Dec-10 11:30N 32°25' W 117°11'3 6.7
2018-Dec-10 11:00N 32°21' W 117°10'4 6.5
2018-Dec-10 10:24N 32°18' W 117°09'3 6.5
2018-Dec-10 09:59N 32°15' W 117°08'2 5.1
2018-Dec-10 09:30N 32°13' W 117°06'  

Dump ship's entire track history